createdAt,value
2023-03-27T03:00:49.151Z,3.30
2023-03-27T03:04:00.855Z,3.34
2023-03-27T03:06:51.207Z,3.39
2023-03-27T03:09:20.150Z,3.46
2023-03-27T03:11:50.997Z,3.52
2023-03-27T03:14:22.274Z,3.57
2023-03-27T03:16:51.333Z,3.58
2023-03-27T03:19:19.910Z,3.59
2023-03-27T03:21:50.144Z,3.65
2023-03-27T03:24:19.354Z,3.70
2023-03-27T03:26:50.815Z,3.75
2023-03-27T03:29:20.096Z,3.79
2023-03-27T03:32:08.195Z,3.83
2023-03-27T03:34:37.976Z,3.85
2023-03-27T03:37:11.486Z,3.90
2023-03-27T03:39:42.309Z,3.94
2023-03-27T03:42:22.444Z,4.01
2023-03-27T03:44:53.095Z,4.01
2023-03-27T03:47:24.180Z,4.06
2023-03-27T03:49:53.497Z,4.12
2023-03-27T03:52:22.410Z,4.09
2023-03-27T03:54:52.556Z,4.06
2023-03-27T03:57:21.077Z,4.07
2023-03-27T04:00:01.187Z,4.04
2023-03-27T04:02:53.857Z,4.00
2023-03-27T04:05:23.631Z,3.98
2023-03-27T04:07:59.984Z,3.90
2023-03-27T04:10:49.845Z,3.80
2023-03-27T04:13:39.345Z,3.74
2023-03-27T04:16:16.868Z,3.65
2023-03-27T04:18:55.184Z,3.60
2023-03-27T04:21:27.229Z,3.53
2023-03-27T04:24:02.957Z,3.47
2023-03-27T04:26:51.723Z,3.39
2023-03-27T04:29:35.712Z,3.31
2023-03-27T04:32:06.289Z,3.25
2023-03-27T04:34:41.135Z,3.21
2023-03-27T04:37:28.148Z,3.15
2023-03-27T04:40:14.513Z,3.11
2023-03-27T04:42:45.241Z,3.08
2023-03-27T04:45:17.920Z,3.06
2023-03-27T04:47:49.797Z,3.04
2023-03-27T04:50:19.002Z,2.99
2023-03-27T04:52:50.317Z,2.96
2023-03-27T04:55:23.540Z,2.96
2023-03-27T04:57:52.950Z,2.94
2023-03-27T05:00:24.187Z,2.98
2023-03-27T05:03:14.329Z,3.03
2023-03-27T05:06:16.094Z,3.06
2023-03-27T05:08:45.302Z,3.14
2023-03-27T05:11:24.335Z,3.22
2023-03-27T05:13:53.587Z,3.30
2023-03-27T05:16:26.711Z,3.40
2023-03-27T05:18:58.548Z,3.50
2023-03-27T05:21:27.494Z,3.56
2023-03-27T05:23:58.255Z,3.65
2023-03-27T05:26:27.646Z,3.74
2023-03-27T05:28:59.558Z,3.82
2023-03-27T05:31:28.755Z,3.91
2023-03-27T05:34:16.102Z,3.96
2023-03-27T05:36:47.610Z,4.01
2023-03-27T05:39:18.141Z,4.07
2023-03-27T05:41:49.767Z,4.12
2023-03-27T05:44:26.119Z,4.15
2023-03-27T05:46:54.977Z,4.19
2023-03-27T05:49:32.357Z,4.25
2023-03-27T05:52:10.268Z,4.30
2023-03-27T05:54:39.264Z,4.37
2023-03-27T05:57:12.517Z,4.43
2023-03-27T05:59:42.837Z,4.49
2023-03-27T06:02:21.436Z,4.57
2023-03-27T06:05:05.462Z,4.62
2023-03-27T06:07:43.269Z,4.69
2023-03-27T06:10:14.407Z,4.74
2023-03-27T06:13:09.507Z,4.80
2023-03-27T06:15:48.216Z,4.96
2023-03-27T06:18:23.542Z,5.09
2023-03-27T06:20:52.391Z,5.21
2023-03-27T06:23:22.419Z,5.32
2023-03-27T06:25:54.277Z,5.39
2023-03-27T06:28:25.658Z,5.43
2023-03-27T06:30:55.072Z,5.48
2023-03-27T06:33:30.138Z,5.51
2023-03-27T06:36:02.542Z,5.54
2023-03-27T06:38:33.589Z,5.56
2023-03-27T06:41:05.054Z,5.58
2023-03-27T06:43:52.244Z,5.59
2023-03-27T06:46:45.201Z,5.56
2023-03-27T06:49:18.727Z,5.52
2023-03-27T06:51:48.343Z,5.46
2023-03-27T06:54:17.940Z,5.37
2023-03-27T06:56:52.286Z,5.30
2023-03-27T06:59:24.033Z,5.29
2023-03-27T07:01:58.866Z,5.31
2023-03-27T07:04:27.702Z,5.30
2023-03-27T07:07:03.588Z,5.29
2023-03-27T07:09:37.284Z,5.30
2023-03-27T07:12:09.542Z,5.28
2023-03-27T07:14:40.106Z,5.26
2023-03-27T07:17:09.610Z,5.27
2023-03-27T07:19:57.395Z,5.26
2023-03-27T07:22:28.833Z,5.28
2023-03-27T07:24:58.718Z,5.28
2023-03-27T07:27:34.717Z,5.26
2023-03-27T07:30:05.446Z,5.29
2023-03-27T07:32:38.108Z,5.34
2023-03-27T07:35:10.049Z,5.37
2023-03-27T07:37:39.541Z,5.42
2023-03-27T07:40:46.854Z,5.49
2023-03-27T07:43:31.565Z,5.47
2023-03-27T07:46:03.706Z,5.49
2023-03-27T07:48:33.642Z,5.50
2023-03-27T07:51:13.502Z,5.48
2023-03-27T07:53:44.803Z,5.50
2023-03-27T07:56:23.764Z,5.57
2023-03-27T07:59:08.797Z,5.69
2023-03-27T08:01:37.706Z,5.78
2023-03-27T08:04:07.848Z,5.88
2023-03-27T08:06:39.129Z,5.96
2023-03-27T08:09:11.134Z,6.10
2023-03-27T08:11:41.778Z,6.16
2023-03-27T08:14:10.663Z,6.14
2023-03-27T08:16:41.019Z,6.17
2023-03-27T08:19:12.301Z,6.18
2023-03-27T08:21:45.125Z,6.19
2023-03-27T08:24:14.373Z,6.29
2023-03-27T08:27:05.549Z,6.38
2023-03-27T08:29:39.739Z,6.39
2023-03-27T08:32:11.360Z,6.42
2023-03-27T08:34:43.580Z,6.50
2023-03-27T08:37:12.098Z,6.59
2023-03-27T08:39:49.674Z,6.63
2023-03-27T08:42:22.537Z,6.62
2023-03-27T08:44:55.806Z,6.59
2023-03-27T08:47:45.030Z,6.63
2023-03-27T08:50:31.370Z,6.70
2023-03-27T08:53:31.748Z,6.77
2023-03-27T08:56:03.862Z,6.87
2023-03-27T08:58:42.095Z,6.87
2023-03-27T09:01:30.362Z,6.88
2023-03-27T09:04:16.275Z,6.89
2023-03-27T09:07:05.846Z,6.82
2023-03-27T09:10:00.153Z,6.77
2023-03-27T09:12:37.447Z,6.81
2023-03-27T09:15:05.975Z,6.88
2023-03-27T09:17:39.533Z,6.89
2023-03-27T09:20:19.836Z,6.94
2023-03-27T09:22:53.050Z,6.97
2023-03-27T09:25:54.933Z,6.88
2023-03-27T09:29:05.864Z,6.72
2023-03-27T09:31:47.425Z,6.64
2023-03-27T09:34:20.405Z,6.71
2023-03-27T09:36:50.027Z,6.84
2023-03-27T09:39:22.954Z,6.94
2023-03-27T09:42:17.883Z,7.12
2023-03-27T09:44:50.765Z,7.31
2023-03-27T09:47:23.685Z,7.47
2023-03-27T09:49:58.427Z,7.52
2023-03-27T09:52:41.076Z,7.28
2023-03-27T09:55:36.250Z,6.83
2023-03-27T09:58:19.285Z,6.48
2023-03-27T10:00:48.602Z,6.31
2023-03-27T10:03:19.210Z,6.31
2023-03-27T10:06:05.706Z,6.33
2023-03-27T10:08:54.233Z,6.50
2023-03-27T10:11:29.058Z,6.69
2023-03-27T10:14:11.936Z,6.82
2023-03-27T10:16:41.882Z,6.85
2023-03-27T10:19:22.940Z,6.79
2023-03-27T10:21:53.024Z,6.66
2023-03-27T10:24:32.663Z,6.71
2023-03-27T10:27:25.436Z,6.85
2023-03-27T10:30:26.719Z,6.94
2023-03-27T10:32:59.473Z,7.04
2023-03-27T10:35:52.989Z,7.08
2023-03-27T10:38:29.193Z,7.07
2023-03-27T10:41:15.178Z,7.03
2023-03-27T10:43:50.434Z,6.97
2023-03-27T10:46:40.629Z,6.90
2023-03-27T10:49:10.522Z,6.72
2023-03-27T10:51:47.086Z,6.52
2023-03-27T10:54:37.250Z,6.34
2023-03-27T10:57:10.795Z,6.22
2023-03-27T10:59:44.914Z,6.13
2023-03-27T11:02:23.583Z,5.99
2023-03-27T11:04:56.304Z,5.92
2023-03-27T11:07:38.659Z,5.82
2023-03-27T11:10:15.288Z,5.69
2023-03-27T11:12:48.857Z,5.53
2023-03-27T11:15:22.466Z,5.39
2023-03-27T11:17:58.274Z,5.40
2023-03-27T11:20:44.396Z,5.44
2023-03-27T11:23:45.141Z,5.51
2023-03-27T11:26:50.885Z,5.61
2023-03-27T11:29:29.021Z,5.69
2023-03-27T11:32:06.907Z,5.72
2023-03-27T11:34:49.230Z,5.69
2023-03-27T11:38:05.399Z,5.63
2023-03-27T11:40:44.019Z,5.63
2023-03-27T11:43:14.236Z,5.53
2023-03-27T11:46:02.232Z,5.42
2023-03-27T11:48:33.594Z,5.35
2023-03-27T11:51:03.656Z,5.36
2023-03-27T11:53:46.468Z,5.37
2023-03-27T11:56:25.313Z,5.41
2023-03-27T11:59:18.241Z,5.46
2023-03-27T12:02:09.737Z,5.40
2023-03-27T12:04:51.092Z,5.25
2023-03-27T12:08:07.124Z,5.08
2023-03-27T12:10:38.188Z,4.85
2023-03-27T12:13:28.674Z,4.72
2023-03-27T12:16:08.891Z,4.55
2023-03-27T12:19:26.886Z,4.43
2023-03-27T12:22:27.153Z,4.26
2023-03-27T12:24:59.915Z,4.15
2023-03-27T12:27:56.364Z,4.05
2023-03-27T12:30:50.281Z,3.97
2023-03-27T12:33:27.487Z,3.94
2023-03-27T12:35:58.686Z,3.96
2023-03-27T12:38:32.290Z,3.94
2023-03-27T12:41:05.739Z,3.97
2023-03-27T12:43:59.916Z,3.93
2023-03-27T12:46:38.056Z,3.90
2023-03-27T12:49:08.018Z,3.84
2023-03-27T12:51:54.712Z,3.83
2023-03-27T12:55:04.688Z,3.88
2023-03-27T12:57:55.033Z,3.93
2023-03-27T13:00:52.286Z,3.98
2023-03-27T13:03:40.169Z,4.04
2023-03-27T13:06:28.855Z,4.16
2023-03-27T13:09:14.904Z,4.24
2023-03-27T13:11:54.431Z,4.32
2023-03-27T13:14:32.896Z,4.40
2023-03-27T13:17:21.049Z,4.55
2023-03-27T13:20:10.694Z,4.61
2023-03-27T13:22:39.688Z,4.62
2023-03-27T13:25:31.257Z,4.50
2023-03-27T13:28:19.928Z,4.39
2023-03-27T13:30:58.593Z,4.29
2023-03-27T13:34:10.524Z,4.23
2023-03-27T13:36:47.452Z,4.19
2023-03-27T13:39:25.515Z,4.10
2023-03-27T13:42:21.437Z,4.06
2023-03-27T13:44:55.745Z,4.00
2023-03-27T13:47:37.145Z,3.99
2023-03-27T13:50:25.781Z,4.01
2023-03-27T13:53:01.782Z,4.05
2023-03-27T13:56:00.883Z,4.11
2023-03-27T13:58:49.791Z,4.12
2023-03-27T14:01:32.657Z,4.18
2023-03-27T14:04:11.332Z,4.25
2023-03-27T14:06:43.536Z,4.32
2023-03-27T14:09:32.127Z,4.38
2023-03-27T14:12:28.939Z,4.40
2023-03-27T14:15:25.869Z,4.37
2023-03-27T14:18:21.574Z,4.32
2023-03-27T14:21:02.413Z,4.34
2023-03-27T14:23:51.400Z,4.30
2023-03-27T14:26:36.134Z,4.15
2023-03-27T14:29:05.728Z,4.01
2023-03-27T14:31:44.597Z,3.84
2023-03-27T14:34:35.347Z,3.72
2023-03-27T14:37:39.810Z,3.68
2023-03-27T14:40:37.720Z,3.58
2023-03-27T14:43:08.786Z,3.49
2023-03-27T14:45:40.902Z,3.41
2023-03-27T14:48:14.835Z,3.34
2023-03-27T14:50:48.657Z,3.30
2023-03-27T14:53:19.366Z,3.29
2023-03-27T14:56:23.301Z,3.31
2023-03-27T14:59:14.094Z,3.33
2023-03-27T15:01:55.928Z,3.34
2023-03-27T15:04:27.699Z,3.35
2023-03-27T15:07:19.896Z,3.37
2023-03-27T15:10:04.144Z,3.42
2023-03-27T15:12:51.930Z,3.52
2023-03-27T15:15:31.139Z,3.55
2023-03-27T15:18:00.233Z,3.52
2023-03-27T15:20:31.943Z,3.48
2023-03-27T15:23:07.346Z,3.47
2023-03-27T15:25:43.234Z,3.46
2023-03-27T15:28:19.899Z,3.48
2023-03-27T15:30:51.702Z,3.54
2023-03-27T15:33:34.178Z,3.58
2023-03-27T15:36:06.911Z,3.62
2023-03-27T15:38:36.841Z,3.63
2023-03-27T15:41:09.618Z,3.67
2023-03-27T15:43:38.495Z,3.65
2023-03-27T15:46:14.999Z,3.60
2023-03-27T15:48:45.950Z,3.53
2023-03-27T15:51:32.753Z,3.45
2023-03-27T15:54:21.628Z,3.42
2023-03-27T15:56:50.815Z,3.36
2023-03-27T15:59:22.346Z,3.28
2023-03-27T16:01:53.237Z,3.24
2023-03-27T16:04:28.675Z,3.24
2023-03-27T16:07:11.505Z,3.25
2023-03-27T16:10:03.089Z,3.23
2023-03-27T16:12:33.686Z,3.17
2023-03-27T16:15:06.485Z,3.06
2023-03-27T16:17:38.150Z,2.90
2023-03-27T16:20:13.880Z,2.76
2023-03-27T16:22:45.869Z,2.59
2023-03-27T16:25:14.586Z,2.44
2023-03-27T16:27:47.649Z,2.34
2023-03-27T16:30:25.940Z,2.24
2023-03-27T16:32:55.320Z,2.15
2023-03-27T16:35:24.395Z,2.09
2023-03-27T16:37:53.895Z,2.02
2023-03-27T16:40:22.158Z,1.94
2023-03-27T16:42:50.994Z,1.88
2023-03-27T16:45:19.315Z,1.85
2023-03-27T16:47:51.633Z,1.79
2023-03-27T16:50:25.077Z,1.72
2023-03-27T16:52:53.920Z,1.66
2023-03-27T16:55:22.906Z,1.62
2023-03-27T16:57:52.970Z,1.58
2023-03-27T17:00:22.538Z,1.56
2023-03-27T17:02:51.314Z,1.54
2023-03-27T17:05:20.241Z,1.49
2023-03-27T17:07:49.368Z,1.42
2023-03-27T17:10:17.892Z,1.37
2023-03-27T17:12:46.315Z,1.33
2023-03-27T17:15:16.224Z,1.29
2023-03-27T17:17:45.879Z,1.26
2023-03-27T17:20:15.206Z,1.21
2023-03-27T17:22:45.317Z,1.15
2023-03-27T17:25:14.778Z,1.12
2023-03-27T17:27:44.010Z,1.10
2023-03-27T17:30:16.072Z,1.08
2023-03-27T17:32:48.511Z,1.06
2023-03-27T17:35:17.067Z,1.03
2023-03-27T17:37:45.911Z,1.00
2023-03-27T17:40:14.707Z,0.96
2023-03-27T17:42:43.452Z,0.93
2023-03-27T17:45:17.352Z,0.87
2023-03-27T17:47:46.226Z,0.81
2023-03-27T17:50:14.531Z,0.79
2023-03-27T17:52:42.698Z,0.78
2023-03-27T17:55:10.888Z,0.77
2023-03-27T17:57:39.588Z,0.75
2023-03-27T18:00:09.871Z,0.73
2023-03-27T18:02:41.471Z,0.71
2023-03-27T18:05:10.601Z,0.71
2023-03-27T18:07:39.610Z,0.71
2023-03-27T18:10:10.811Z,0.69
2023-03-27T18:12:40.013Z,0.68
2023-03-27T18:15:09.479Z,0.66
2023-03-27T18:17:38.983Z,0.63
2023-03-27T18:20:11.789Z,0.61
2023-03-27T18:22:40.612Z,0.60
2023-03-27T18:25:10.295Z,0.61
2023-03-27T18:27:43.793Z,0.62
2023-03-27T18:30:13.878Z,0.61
2023-03-27T18:32:43.878Z,0.61
2023-03-27T18:35:14.760Z,0.61
2023-03-27T18:37:44.276Z,0.60
2023-03-27T18:40:15.777Z,0.59
2023-03-27T18:42:46.619Z,0.58
2023-03-27T18:45:16.798Z,0.57
2023-03-27T18:47:46.050Z,0.58
2023-03-27T18:50:14.654Z,0.61
2023-03-27T18:52:43.605Z,0.61
2023-03-27T18:55:13.538Z,0.61
2023-03-27T18:57:42.594Z,0.65
2023-03-27T19:00:14.204Z,0.64
2023-03-27T19:02:43.515Z,0.63
2023-03-27T19:05:13.349Z,0.64
2023-03-27T19:07:44.386Z,0.68
2023-03-27T19:10:14.335Z,0.64
2023-03-27T19:12:47.367Z,0.67
2023-03-27T19:15:35.013Z,0.64
2023-03-27T19:18:25.909Z,0.60
2023-03-27T19:21:07.124Z,0.58
2023-03-27T19:23:50.515Z,0.56
2023-03-27T19:26:22.562Z,0.54
2023-03-27T19:28:51.193Z,0.58
2023-03-27T19:31:19.633Z,0.60
2023-03-27T19:33:48.651Z,0.64
2023-03-27T19:36:18.677Z,0.63
2023-03-27T19:38:48.494Z,0.63
2023-03-27T19:41:17.569Z,0.62
2023-03-27T19:43:46.729Z,0.57
2023-03-27T19:46:16.841Z,0.56
2023-03-27T19:48:47.842Z,0.53
2023-03-27T19:51:35.095Z,0.55
2023-03-27T19:54:04.073Z,0.56
2023-03-27T19:56:32.351Z,0.58
2023-03-27T19:59:00.623Z,0.55
2023-03-27T20:01:29.535Z,0.51
2023-03-27T20:04:00.628Z,0.49
2023-03-27T20:06:30.178Z,0.50
2023-03-27T20:09:00.958Z,0.46
2023-03-27T20:11:29.772Z,0.43
2023-03-27T20:13:58.603Z,0.36
2023-03-27T20:16:28.166Z,0.32
2023-03-27T20:19:04.204Z,0.31
2023-03-27T20:21:37.996Z,0.32
2023-03-27T20:24:10.308Z,0.32
2023-03-27T20:26:42.473Z,0.31
2023-03-27T20:29:18.263Z,0.30
2023-03-27T20:31:48.558Z,0.29
2023-03-27T20:34:20.079Z,0.26
2023-03-27T20:36:53.454Z,0.29
2023-03-27T20:39:55.594Z,0.29
2023-03-27T20:42:25.950Z,0.27
2023-03-27T20:44:59.058Z,0.25
2023-03-27T20:47:27.432Z,0.18
2023-03-27T20:49:59.306Z,0.10
2023-03-27T20:52:28.831Z,0.08
2023-03-27T20:54:58.337Z,0.06
2023-03-27T20:57:27.016Z,0.04
2023-03-27T20:59:56.143Z,0.04
2023-03-27T21:02:24.694Z,-0.04
2023-03-27T21:04:53.803Z,-0.07
2023-03-27T21:07:22.738Z,-0.11
2023-03-27T21:09:53.444Z,-0.13
2023-03-27T21:12:21.628Z,-0.17
2023-03-27T21:14:50.615Z,-0.19
2023-03-27T21:17:19.431Z,-0.21
2023-03-27T21:19:48.575Z,-0.24
2023-03-27T21:25:26.315Z,-0.24
2023-03-27T21:28:01.083Z,-0.20
2023-03-27T21:30:46.671Z,-0.17
2023-03-27T21:33:17.718Z,-0.20
2023-03-27T21:35:47.248Z,-0.21
2023-03-27T21:38:16.627Z,-0.24
2023-03-27T21:40:47.590Z,-0.28
2023-03-27T21:43:16.356Z,-0.31
2023-03-27T21:45:47.414Z,-0.30
2023-03-27T21:48:15.737Z,-0.23
2023-03-27T21:50:45.488Z,-0.23
2023-03-27T21:53:18.127Z,-0.29
2023-03-27T21:55:47.974Z,-0.32
2023-03-27T21:58:27.692Z,-0.36
2023-03-27T22:01:08.792Z,-0.44
2023-03-27T22:03:37.865Z,-0.46
2023-03-27T22:06:12.376Z,-0.44
2023-03-27T22:08:43.553Z,-0.47
2023-03-27T22:11:12.888Z,-0.54
2023-03-27T22:13:43.856Z,-0.56
2023-03-27T22:16:15.199Z,-0.58
2023-03-27T22:18:44.587Z,-0.68
2023-03-27T22:21:14.969Z,-0.75
2023-03-27T22:23:44.435Z,-0.80
2023-03-27T22:26:13.561Z,-0.81
2023-03-27T22:28:42.605Z,-0.83
2023-03-27T22:31:12.191Z,-0.83
2023-03-27T22:33:41.646Z,-0.83
2023-03-27T22:36:11.708Z,-0.85
2023-03-27T22:38:41.593Z,-0.86
2023-03-27T22:41:11.861Z,-0.88
2023-03-27T22:43:41.520Z,-0.89
2023-03-27T22:46:15.230Z,-0.95
2023-03-27T22:48:44.397Z,-0.95
2023-03-27T22:51:13.749Z,-0.94
2023-03-27T22:53:42.808Z,-0.98
2023-03-27T22:56:11.807Z,-0.97
2023-03-27T22:58:40.960Z,-0.95
2023-03-27T23:01:10.551Z,-0.91
2023-03-27T23:03:40.167Z,-0.93
2023-03-27T23:06:17.012Z,-0.93
2023-03-27T23:08:46.245Z,-0.90
2023-03-27T23:11:15.498Z,-0.92
2023-03-27T23:13:44.991Z,-0.97
2023-03-27T23:16:13.902Z,-0.99
2023-03-27T23:18:42.982Z,-1.00
2023-03-27T23:21:14.245Z,-1.02
2023-03-27T23:23:42.871Z,-1.03
2023-03-27T23:26:12.289Z,-0.95
2023-03-27T23:28:42.476Z,-0.92
2023-03-27T23:31:16.249Z,-0.95
2023-03-27T23:33:47.217Z,-0.98
2023-03-27T23:36:17.338Z,-0.95
2023-03-27T23:38:46.624Z,-0.91
2023-03-27T23:41:16.420Z,-0.91
2023-03-27T23:43:45.914Z,-0.92
2023-03-27T23:46:15.404Z,-0.92
2023-03-27T23:48:45.262Z,-0.97
2023-03-27T23:51:15.977Z,-0.98
2023-03-27T23:53:46.390Z,-1.00
2023-03-27T23:56:15.618Z,-1.03
2023-03-27T23:58:45.310Z,-1.04
